Time;durP1;ratioP1;P1;durP2;ratioP2;P2;SDS_P1;SDS_P2;PMS_P1;PMS_P2;Temp;Humidity;BMP_temperature;BMP_pressure;BME280_temperature;BME280_humidity;BME280_pressure;Samples;Min_cycle;Max_cycle;Signal;HPM_P1;HPM_P2
2024/02/02 00:00:18;;;;;;;67.17;38.67;;;3.40;99.90;;;;;;6215412;23;20032;-67
2024/02/02 00:02:44;;;;;;;68.83;39.20;;;3.50;99.90;;;;;;6215119;23;20427;-67
2024/02/02 00:05:10;;;;;;;62.60;38.90;;;3.50;99.90;;;;;;6215028;23;20112;-67
2024/02/02 00:07:35;;;;;;;68.17;38.10;;;3.50;99.90;;;;;;6215916;23;20033;-67
2024/02/02 00:10:01;;;;;;;69.50;39.40;;;3.40;99.90;;;;;;6215528;23;20007;-67
2024/02/02 00:12:28;;;;;;;71.47;37.77;;;3.40;99.90;;;;;;6215225;23;20008;-66
2024/02/02 00:14:53;;;;;;;65.50;38.23;;;3.40;99.90;;;;;;6214954;23;20005;-67
2024/02/02 00:17:19;;;;;;;67.27;38.30;;;3.30;99.90;;;;;;6215276;23;20062;-67
2024/02/02 00:19:46;;;;;;;66.83;38.17;;;3.30;99.90;;;;;;6215577;23;20438;-67
2024/02/02 00:22:11;;;;;;;68.17;39.87;;;3.30;99.90;;;;;;6215316;23;20003;-66
2024/02/02 00:24:37;;;;;;;76.87;38.57;;;3.30;99.90;;;;;;6192603;23;20017;-67
2024/02/02 00:27:04;;;;;;;68.87;38.77;;;3.30;99.90;;;;;;6185284;23;20049;-67
2024/02/02 00:29:29;;;;;;;65.47;38.33;;;3.30;99.90;;;;;;6185428;23;20012;-67
2024/02/02 00:31:55;;;;;;;68.53;38.63;;;3.30;99.90;;;;;;6185311;23;20001;-67
2024/02/02 00:34:21;;;;;;;72.37;38.73;;;3.30;99.90;;;;;;6185090;23;20001;-67
2024/02/02 00:36:47;;;;;;;65.07;37.07;;;3.30;99.90;;;;;;6185175;23;20001;-66
2024/02/02 00:39:12;;;;;;;64.97;38.97;;;3.30;99.90;;;;;;6184947;23;20086;-67
2024/02/02 00:41:38;;;;;;;59.80;35.77;;;3.30;99.90;;;;;;6185183;23;20044;-67
2024/02/02 00:44:06;;;;;;;59.57;36.70;;;3.30;99.90;;;;;;6185583;23;20015;-67
2024/02/02 00:46:32;;;;;;;65.60;37.47;;;3.30;99.90;;;;;;6185108;23;20005;-67
2024/02/02 00:48:58;;;;;;;70.03;38.33;;;3.30;99.90;;;;;;6185283;23;20013;-66
2024/02/02 00:51:23;;;;;;;67.10;37.37;;;3.40;99.90;;;;;;6185213;23;20001;-67
2024/02/02 00:53:49;;;;;;;71.77;34.30;;;3.30;99.90;;;;;;6185644;23;20009;-67
2024/02/02 00:56:15;;;;;;;59.93;33.63;;;3.30;99.90;;;;;;6185075;23;19997;-67
2024/02/02 00:58:41;;;;;;;60.53;32.43;;;3.30;99.90;;;;;;6184955;23;20001;-67
2024/02/02 01:01:07;;;;;;;55.37;32.67;;;3.30;99.90;;;;;;6185186;23;20036;-67
2024/02/02 01:03:33;;;;;;;62.37;33.13;;;3.30;99.90;;;;;;6185347;23;20041;-67
2024/02/02 01:06:00;;;;;;;57.80;33.33;;;3.30;99.90;;;;;;6184727;23;20020;-67
2024/02/02 01:08:26;;;;;;;58.63;32.23;;;3.40;99.90;;;;;;6185105;23;20001;-67
2024/02/02 01:10:51;;;;;;;54.97;29.67;;;3.30;99.90;;;;;;6185072;23;20035;-67
2024/02/02 01:13:17;;;;;;;53.47;27.57;;;3.30;99.90;;;;;;6184875;23;20363;-67
2024/02/02 01:15:43;;;;;;;53.77;28.03;;;3.30;99.90;;;;;;6184727;23;20072;-67
2024/02/02 01:18:09;;;;;;;44.93;26.03;;;3.30;99.90;;;;;;6185168;23;19997;-67
2024/02/02 01:20:35;;;;;;;42.83;23.33;;;3.30;99.90;;;;;;6184977;23;20036;-66
2024/02/02 01:23:02;;;;;;;38.40;21.53;;;3.30;99.90;;;;;;6184740;23;20062;-67
2024/02/02 01:25:31;;;;;;;38.93;21.87;;;3.20;99.90;;;;;;6184606;23;20281;-67
2024/02/02 01:27:57;;;;;;;35.80;21.80;;;3.20;99.90;;;;;;6185014;23;20006;-67
2024/02/02 01:30:23;;;;;;;33.57;20.37;;;3.20;99.90;;;;;;6185044;23;20301;-67
2024/02/02 01:32:49;;;;;;;36.57;20.57;;;3.20;99.90;;;;;;6185201;23;20047;-67
2024/02/02 01:35:17;;;;;;;33.30;19.90;;;3.20;99.90;;;;;;6184495;23;20013;-67
2024/02/02 01:37:43;;;;;;;39.53;20.30;;;3.20;99.90;;;;;;6184670;23;20006;-66
2024/02/02 01:40:09;;;;;;;39.50;19.90;;;3.20;99.90;;;;;;6184844;23;20012;-67
2024/02/02 01:42:35;;;;;;;37.77;21.33;;;3.20;99.90;;;;;;6184789;23;20007;-66
2024/02/02 01:45:01;;;;;;;34.40;20.87;;;3.30;99.90;;;;;;6184974;23;20013;-67
2024/02/02 01:47:27;;;;;;;34.50;21.80;;;3.30;99.90;;;;;;6184967;23;20044;-67
2024/02/02 01:49:52;;;;;;;39.73;22.57;;;3.30;99.90;;;;;;6184940;23;20009;-67
2024/02/02 01:52:18;;;;;;;37.60;22.03;;;3.30;99.90;;;;;;6184757;23;20001;-67
2024/02/02 01:54:45;;;;;;;36.13;21.97;;;3.30;99.90;;;;;;6184856;23;20415;-67
2024/02/02 01:57:11;;;;;;;43.57;22.70;;;3.30;99.90;;;;;;6184802;23;20055;-67
2024/02/02 01:59:36;;;;;;;47.43;24.23;;;3.30;99.90;;;;;;6181105;23;20012;-67
2024/02/02 02:02:03;;;;;;;36.93;23.40;;;3.30;99.90;;;;;;6181090;23;20005;-66
2024/02/02 02:04:29;;;;;;;38.73;24.33;;;3.30;99.90;;;;;;6182403;23;20013;-67
2024/02/02 02:06:55;;;;;;;46.03;26.23;;;3.30;99.90;;;;;;6184496;23;19998;-67
2024/02/02 02:09:21;;;;;;;49.03;26.77;;;3.30;99.90;;;;;;6184411;23;20439;-67
2024/02/02 02:11:46;;;;;;;51.47;27.60;;;3.30;99.90;;;;;;6184432;23;19997;-67
2024/02/02 02:14:12;;;;;;;50.07;26.53;;;3.30;99.90;;;;;;6184661;23;20005;-67
2024/02/02 02:16:38;;;;;;;58.40;27.00;;;3.30;99.90;;;;;;6184718;23;20005;-67
2024/02/02 02:19:05;;;;;;;47.90;27.10;;;3.20;99.90;;;;;;6185976;23;19997;-67
2024/02/02 02:21:30;;;;;;;50.57;27.07;;;3.10;99.90;;;;;;6186146;23;20005;-67
2024/02/02 02:23:56;;;;;;;46.47;26.43;;;3.10;99.90;;;;;;6185747;23;20017;-67
2024/02/02 02:26:22;;;;;;;43.90;25.23;;;3.00;99.90;;;;;;6186029;23;20001;-67
2024/02/02 02:28:49;;;;;;;50.17;26.53;;;3.00;99.90;;;;;;6186035;23;20036;-66
2024/02/02 02:31:16;;;;;;;44.67;25.20;;;2.90;99.90;;;;;;6186270;23;20136;-67
2024/02/02 02:33:43;;;;;;;46.93;26.50;;;2.90;99.90;;;;;;6185933;23;19997;-67
2024/02/02 02:36:11;;;;;;;43.70;25.50;;;2.90;99.90;;;;;;6186018;23;20001;-67
2024/02/02 02:38:37;;;;;;;44.67;26.73;;;3.00;99.90;;;;;;6186278;23;20008;-67
2024/02/02 02:41:02;;;;;;;46.80;26.43;;;2.90;99.90;;;;;;6186268;23;20001;-67
2024/02/02 02:43:29;;;;;;;43.10;25.20;;;2.90;99.90;;;;;;6185840;23;20036;-67
2024/02/02 02:45:55;;;;;;;42.13;25.43;;;2.90;99.90;;;;;;6185921;23;20024;-67
2024/02/02 02:48:21;;;;;;;43.43;25.30;;;2.90;99.90;;;;;;6186244;23;20001;-67
2024/02/02 02:50:47;;;;;;;45.33;25.97;;;2.90;99.90;;;;;;6186058;23;20008;-67
2024/02/02 02:53:12;;;;;;;38.47;24.13;;;2.90;99.90;;;;;;6186258;23;20001;-67
2024/02/02 02:55:38;;;;;;;43.77;24.67;;;2.90;99.90;;;;;;6186029;23;20055;-67
2024/02/02 02:58:04;;;;;;;42.97;25.20;;;2.90;99.90;;;;;;6186007;23;19993;-68
2024/02/02 03:00:31;;;;;;;42.57;24.87;;;2.90;99.90;;;;;;6185527;23;20052;-67
2024/02/02 03:03:00;;;;;;;43.07;24.17;;;2.90;99.90;;;;;;6185965;23;20108;-67
2024/02/02 03:05:28;;;;;;;42.87;25.23;;;2.90;99.90;;;;;;6185830;23;20100;-67
2024/02/02 03:07:54;;;;;;;44.47;25.37;;;2.90;99.90;;;;;;6186029;23;20043;-67
2024/02/02 03:10:22;;;;;;;41.73;23.53;;;2.90;99.90;;;;;;6185714;23;20079;-67
2024/02/02 03:12:47;;;;;;;37.30;23.00;;;2.90;99.90;;;;;;6185844;23;20001;-67
2024/02/02 03:15:13;;;;;;;38.20;21.73;;;2.90;99.90;;;;;;6185866;23;20012;-67
2024/02/02 03:17:39;;;;;;;36.03;20.47;;;2.90;99.90;;;;;;6185878;23;19997;-67
2024/02/02 03:20:08;;;;;;;34.50;20.37;;;2.90;99.90;;;;;;6185825;23;20017;-67
2024/02/02 03:22:34;;;;;;;33.77;18.37;;;2.90;99.90;;;;;;6185507;23;20495;-67
2024/02/02 03:25:00;;;;;;;31.17;17.27;;;3.00;99.90;;;;;;6185619;23;20021;-67
2024/02/02 03:27:25;;;;;;;27.93;17.83;;;3.00;99.90;;;;;;6186121;23;20076;-67
2024/02/02 03:29:51;;;;;;;34.30;18.17;;;2.90;99.90;;;;;;6185841;23;20028;-67
2024/02/02 03:32:17;;;;;;;29.63;17.80;;;2.90;99.90;;;;;;6186186;23;20001;-67
2024/02/02 03:34:42;;;;;;;31.73;17.23;;;2.90;99.90;;;;;;6185610;23;20028;-67
2024/02/02 03:37:08;;;;;;;29.87;17.03;;;2.90;99.90;;;;;;6185854;23;20020;-68
2024/02/02 03:39:34;;;;;;;32.90;16.83;;;2.90;99.90;;;;;;6185408;23;20031;-67
2024/02/02 03:42:00;;;;;;;33.97;18.60;;;3.00;99.90;;;;;;6185598;23;19997;-68
2024/02/02 03:44:25;;;;;;;31.10;17.63;;;3.00;99.90;;;;;;6185167;23;20017;-67
2024/02/02 03:46:51;;;;;;;26.50;17.40;;;3.00;99.90;;;;;;6185537;23;20001;-67
2024/02/02 03:49:17;;;;;;;30.47;17.63;;;3.00;99.90;;;;;;6185827;23;20015;-66
2024/02/02 03:51:43;;;;;;;30.90;17.07;;;3.00;99.90;;;;;;6185319;23;20001;-67
2024/02/02 03:54:09;;;;;;;31.13;18.17;;;3.00;99.90;;;;;;6185423;23;20008;-67
2024/02/02 03:56:35;;;;;;;30.27;18.10;;;3.00;99.90;;;;;;6185642;23;20036;-68
2024/02/02 03:59:00;;;;;;;31.50;19.57;;;3.00;99.90;;;;;;6185508;23;20009;-67
2024/02/02 04:01:26;;;;;;;46.50;21.47;;;3.00;99.90;;;;;;6185883;23;20125;-67
2024/02/02 04:03:52;;;;;;;33.77;20.47;;;3.00;99.90;;;;;;6185472;23;20087;-67
2024/02/02 04:06:17;;;;;;;38.00;21.67;;;3.00;99.90;;;;;;6185314;23;20470;-67
2024/02/02 04:08:43;;;;;;;37.23;21.07;;;3.00;99.90;;;;;;6185720;23;20001;-67
2024/02/02 04:11:09;;;;;;;34.70;20.03;;;3.00;99.90;;;;;;6185248;23;20487;-67
2024/02/02 04:13:34;;;;;;;34.17;20.97;;;3.00;99.90;;;;;;6185415;23;20104;-67
2024/02/02 04:16:00;;;;;;;34.77;20.97;;;3.00;99.90;;;;;;6185405;23;20001;-67
2024/02/02 04:18:26;;;;;;;34.30;21.10;;;3.00;99.90;;;;;;6185175;23;19997;-67
2024/02/02 04:20:53;;;;;;;33.03;19.57;;;2.90;99.90;;;;;;6185316;23;20009;-67
2024/02/02 04:23:19;;;;;;;33.60;20.37;;;2.90;99.90;;;;;;6185188;23;20059;-68
2024/02/02 04:25:45;;;;;;;39.40;22.10;;;2.90;99.90;;;;;;6185223;23;20724;-67
2024/02/02 04:28:11;;;;;;;34.10;21.37;;;2.90;99.90;;;;;;6185534;23;20032;-67
2024/02/02 04:30:37;;;;;;;37.17;20.97;;;2.90;99.90;;;;;;6158871;23;20027;-67
2024/02/02 04:33:04;;;;;;;35.93;20.77;;;2.90;99.90;;;;;;6184880;23;20024;-67
2024/02/02 04:35:34;;;;;;;38.30;20.57;;;2.90;99.90;;;;;;6185229;23;20001;-68
2024/02/02 04:38:01;;;;;;;36.23;20.70;;;2.90;99.90;;;;;;6184798;23;20477;-68
2024/02/02 04:40:27;;;;;;;35.37;20.60;;;2.90;99.90;;;;;;6184458;23;20001;-67
2024/02/02 04:42:52;;;;;;;34.63;21.33;;;2.80;99.90;;;;;;6184597;23;19997;-67
2024/02/02 04:45:18;;;;;;;31.73;19.57;;;2.80;99.90;;;;;;6184962;23;20475;-68
2024/02/02 04:47:44;;;;;;;35.77;20.93;;;2.70;99.90;;;;;;6184648;23;20028;-67
2024/02/02 04:50:10;;;;;;;35.20;19.50;;;2.60;99.90;;;;;;6184728;23;20001;-67
2024/02/02 04:52:35;;;;;;;39.13;20.40;;;2.60;99.90;;;;;;6184839;23;20001;-67
2024/02/02 04:55:01;;;;;;;38.43;20.70;;;2.60;99.90;;;;;;6185104;23;20029;-67
2024/02/02 04:57:27;;;;;;;30.83;19.87;;;2.60;99.90;;;;;;6184492;23;20077;-67
2024/02/02 04:59:54;;;;;;;38.10;20.27;;;2.60;99.90;;;;;;6185292;23;20008;-67
2024/02/02 05:02:20;;;;;;;34.87;20.83;;;2.60;99.90;;;;;;6185163;23;20025;-67
2024/02/02 05:04:46;;;;;;;29.73;19.23;;;2.60;99.90;;;;;;6184823;23;20009;-67
2024/02/02 05:07:11;;;;;;;35.87;19.77;;;2.60;99.90;;;;;;6184825;23;20008;-68
2024/02/02 05:09:37;;;;;;;38.07;19.43;;;2.60;99.90;;;;;;6184825;23;20005;-67
2024/02/02 05:12:03;;;;;;;33.90;19.83;;;2.70;99.90;;;;;;6184872;23;20001;-67
2024/02/02 05:14:29;;;;;;;43.13;19.77;;;2.70;99.90;;;;;;6184807;23;20035;-67
2024/02/02 05:16:55;;;;;;;36.07;21.47;;;2.60;99.90;;;;;;6184839;23;20084;-66
2024/02/02 05:19:20;;;;;;;36.63;20.17;;;2.60;99.90;;;;;;6185011;23;20429;-67
2024/02/02 05:21:46;;;;;;;36.60;20.10;;;2.60;99.90;;;;;;6184701;23;20005;-67
2024/02/02 05:24:12;;;;;;;32.77;20.00;;;2.70;99.90;;;;;;6184237;23;20009;-66
2024/02/02 05:26:38;;;;;;;41.97;21.23;;;2.70;99.90;;;;;;6184596;23;20005;-67
2024/02/02 05:29:04;;;;;;;40.20;20.80;;;2.60;99.90;;;;;;6184919;23;20043;-67
2024/02/02 05:31:29;;;;;;;38.87;20.63;;;2.50;99.90;;;;;;6184824;23;20001;-67
2024/02/02 05:33:55;;;;;;;41.27;21.77;;;2.50;99.90;;;;;;6184654;23;20001;-67
2024/02/02 05:36:21;;;;;;;36.37;21.03;;;2.50;99.90;;;;;;6185002;23;20001;-67
2024/02/02 05:38:46;;;;;;;37.03;22.17;;;2.50;99.90;;;;;;6184860;23;20072;-67
2024/02/02 05:41:12;;;;;;;41.07;21.00;;;2.50;99.90;;;;;;6184453;23;20428;-66
2024/02/02 05:43:38;;;;;;;38.43;21.97;;;2.50;99.90;;;;;;6184874;23;20001;-67
2024/02/02 05:46:05;;;;;;;37.77;21.47;;;2.50;99.90;;;;;;6185077;23;20021;-66
2024/02/02 05:48:31;;;;;;;36.57;21.03;;;2.50;99.90;;;;;;6184773;23;20005;-67
2024/02/02 05:50:56;;;;;;;47.70;22.73;;;2.40;99.90;;;;;;6184761;23;20005;-67
2024/02/02 05:53:22;;;;;;;40.37;22.27;;;2.40;99.90;;;;;;6185587;23;19997;-67
2024/02/02 05:55:48;;;;;;;46.33;20.33;;;2.30;99.90;;;;;;6186264;23;20032;-67
2024/02/02 05:58:13;;;;;;;38.23;21.77;;;2.40;99.90;;;;;;6186365;23;20080;-66
2024/02/02 06:01:00;;;;;;;40.50;21.57;;;2.40;99.90;;;;;;6186679;23;20001;-67
2024/02/02 06:03:26;;;;;;;44.23;22.70;;;2.40;99.90;;;;;;6181105;23;20020;-67
2024/02/02 06:05:52;;;;;;;45.33;21.57;;;2.40;99.90;;;;;;6186354;23;20040;-67
2024/02/02 06:08:37;;;;;;;45.57;22.37;;;2.30;99.90;;;;;;6186378;23;20037;-67
2024/02/02 06:11:04;;;;;;;42.97;21.07;;;2.30;99.90;;;;;;6186078;23;20001;-66
2024/02/02 06:13:30;;;;;;;33.80;20.67;;;2.30;99.90;;;;;;6187060;23;20541;-67
2024/02/02 06:15:55;;;;;;;41.87;22.00;;;2.30;99.90;;;;;;6186580;23;20028;-67
2024/02/02 06:18:21;;;;;;;38.20;22.03;;;2.30;99.90;;;;;;6186372;23;20004;-66
2024/02/02 06:20:47;;;;;;;44.87;22.63;;;2.30;99.90;;;;;;6186247;23;20442;-67
2024/02/02 06:23:13;;;;;;;41.73;22.23;;;2.30;99.90;;;;;;6185805;23;20079;-67
2024/02/02 06:25:38;;;;;;;43.80;21.90;;;2.30;99.90;;;;;;6185948;23;20036;-67
2024/02/02 06:28:05;;;;;;;48.40;23.23;;;2.30;99.90;;;;;;6186383;23;20028;-66
2024/02/02 06:30:31;;;;;;;38.93;21.57;;;2.30;99.90;;;;;;6185859;23;20012;-67
2024/02/02 06:32:59;;;;;;;44.43;21.57;;;2.30;99.90;;;;;;6186074;23;20001;-67
2024/02/02 06:35:29;;;;;;;36.33;21.67;;;2.30;99.90;;;;;;6185894;23;20088;-67
2024/02/02 06:37:57;;;;;;;41.33;21.70;;;2.30;99.90;;;;;;6186082;23;20453;-67
2024/02/02 06:40:23;;;;;;;47.47;22.40;;;2.30;99.90;;;;;;6186257;23;20093;-67
2024/02/02 06:42:48;;;;;;;46.83;21.80;;;2.30;99.90;;;;;;6186171;23;20420;-67
2024/02/02 06:45:14;;;;;;;55.67;20.80;;;2.30;99.90;;;;;;6186155;23;20092;-67
2024/02/02 06:47:41;;;;;;;51.13;22.10;;;2.30;99.90;;;;;;6186045;23;20001;-67
2024/02/02 06:50:08;;;;;;;46.70;21.07;;;2.30;99.90;;;;;;6186111;23;20001;-67
2024/02/02 06:52:35;;;;;;;48.10;20.83;;;2.30;99.90;;;;;;6185821;23;19997;-65
2024/02/02 06:55:01;;;;;;;49.40;20.57;;;2.30;99.90;;;;;;6185413;23;20001;-67
2024/02/02 06:57:31;;;;;;;41.27;20.83;;;2.30;99.90;;;;;;6186102;23;20328;-67
2024/02/02 06:59:58;;;;;;;46.80;21.23;;;2.40;99.90;;;;;;6184497;23;20005;-66
2024/02/02 07:02:32;;;;;;;49.97;19.53;;;2.40;99.90;;;;;;6185192;23;20005;-67
2024/02/02 07:04:59;;;;;;;37.60;19.77;;;2.40;99.90;;;;;;6185302;23;20013;-68
2024/02/02 07:07:25;;;;;;;40.83;19.40;;;2.50;99.90;;;;;;6185612;23;20005;-67
2024/02/02 07:09:55;;;;;;;45.00;20.10;;;2.50;99.90;;;;;;6186250;23;20015;-67
2024/02/02 07:12:54;;;;;;;39.97;19.40;;;2.50;99.90;;;;;;6186187;23;20001;-67
2024/02/02 07:15:21;;;;;;;39.07;18.37;;;2.50;99.90;;;;;;6186070;23;20004;-67
2024/02/02 07:17:47;;;;;;;36.10;19.27;;;2.60;99.90;;;;;;6186308;23;20009;-67
2024/02/02 07:20:22;;;;;;;40.57;21.07;;;2.60;99.90;;;;;;6185977;23;20432;-67
2024/02/02 07:22:49;;;;;;;48.40;24.87;;;2.60;99.90;;;;;;6184198;23;20016;-66
2024/02/02 07:25:23;;;;;;;40.70;19.10;;;2.70;99.90;;;;;;6182890;23;20013;-67
2024/02/02 07:27:53;;;;;;;42.17;20.73;;;2.80;99.90;;;;;;6185770;23;20001;-67
2024/02/02 07:30:34;;;;;;;36.67;18.80;;;2.90;99.90;;;;;;6182837;23;20011;-67
2024/02/02 07:33:00;;;;;;;41.93;19.60;;;2.90;99.90;;;;;;6185778;23;20012;-67
2024/02/02 07:35:35;;;;;;;41.47;19.83;;;2.90;99.90;;;;;;6185408;23;20443;-67
2024/02/02 07:38:05;;;;;;;43.67;19.43;;;3.00;99.90;;;;;;6185342;23;20009;-67
2024/02/02 07:40:48;;;;;;;44.23;21.47;;;3.00;99.90;;;;;;6185155;23;20005;-67
2024/02/02 07:43:14;;;;;;;37.87;21.03;;;3.10;99.90;;;;;;6184833;23;20427;-67
2024/02/02 07:45:40;;;;;;;45.53;20.23;;;3.10;99.90;;;;;;6185439;23;20124;-67
2024/02/02 07:48:06;;;;;;;48.60;22.07;;;3.20;99.90;;;;;;6185269;23;20001;-67
2024/02/02 07:50:31;;;;;;;53.20;23.17;;;3.40;99.90;;;;;;6145216;23;20017;-67
2024/02/02 07:52:57;;;;;;;55.77;23.77;;;3.40;99.90;;;;;;6184453;23;20009;-67
2024/02/02 07:55:23;;;;;;;58.37;24.20;;;3.50;99.90;;;;;;6185658;23;20008;-67
2024/02/02 07:57:49;;;;;;;55.33;27.30;;;3.60;99.90;;;;;;6185578;23;20064;-67
2024/02/02 08:00:15;;;;;;;58.30;27.07;;;3.60;99.90;;;;;;6143314;23;20039;-67
2024/02/02 08:02:41;;;;;;;59.93;25.80;;;3.70;99.90;;;;;;6184213;23;20427;-67
2024/02/02 08:05:07;;;;;;;45.33;22.97;;;3.80;99.90;;;;;;6184219;23;20009;-67
2024/02/02 08:07:34;;;;;;;44.20;21.30;;;3.80;99.90;;;;;;6184738;23;20008;-67
2024/02/02 08:09:59;;;;;;;60.60;22.80;;;4.00;99.90;;;;;;6184385;23;20061;-67
2024/02/02 08:12:25;;;;;;;48.53;20.83;;;4.00;99.90;;;;;;6184426;23;20080;-67
2024/02/02 08:14:51;;;;;;;46.97;20.63;;;4.20;99.90;;;;;;6181541;23;20063;-67
2024/02/02 08:17:17;;;;;;;57.17;23.03;;;4.30;99.90;;;;;;6184177;23;20028;-67
2024/02/02 08:19:42;;;;;;;55.87;21.30;;;4.30;99.90;;;;;;6184913;23;20032;-66
2024/02/02 08:22:08;;;;;;;46.17;19.73;;;4.50;99.90;;;;;;6184781;23;19997;-67
2024/02/02 08:24:34;;;;;;;42.00;19.70;;;4.50;99.90;;;;;;6184144;23;20019;-67
2024/02/02 08:26:59;;;;;;;47.53;21.23;;;4.60;99.90;;;;;;6185008;23;20005;-67
2024/02/02 08:29:25;;;;;;;44.50;21.00;;;4.70;99.90;;;;;;6185004;23;20008;-67
2024/02/02 08:31:51;;;;;;;47.47;22.97;;;4.70;99.90;;;;;;6184611;23;20001;-67
2024/02/02 08:34:17;;;;;;;57.47;26.77;;;4.80;99.90;;;;;;6184594;23;20001;-67
2024/02/02 08:36:42;;;;;;;51.60;22.77;;;4.90;99.90;;;;;;6184472;23;20071;-67
2024/02/02 08:39:09;;;;;;;47.57;20.70;;;4.90;99.90;;;;;;6185099;23;20001;-67
2024/02/02 08:41:35;;;;;;;35.53;17.77;;;5.00;99.90;;;;;;6185019;23;20016;-67
2024/02/02 08:44:04;;;;;;;30.90;16.50;;;5.10;99.90;;;;;;6184741;23;19998;-67
2024/02/02 08:46:35;;;;;;;38.60;16.47;;;5.20;99.90;;;;;;6184202;23;19997;-67
2024/02/02 08:49:02;;;;;;;31.63;16.63;;;5.30;99.90;;;;;;6184760;23;20088;-67
2024/02/02 08:51:33;;;;;;;29.97;15.80;;;5.40;99.90;;;;;;6184680;23;19997;-67
2024/02/02 08:54:08;;;;;;;27.70;15.77;;;5.50;99.90;;;;;;6184609;23;20415;-67
2024/02/02 08:56:33;;;;;;;35.53;14.90;;;5.60;99.90;;;;;;6184528;23;20001;-67
2024/02/02 08:58:59;;;;;;;33.20;16.43;;;5.70;99.90;;;;;;6184106;23;20055;-67
2024/02/02 09:01:43;;;;;;;40.77;18.43;;;5.80;99.90;;;;;;6184387;23;20036;-67
2024/02/02 09:04:47;;;;;;;35.07;16.60;;;5.90;99.90;;;;;;6184464;23;20001;-67
2024/02/02 09:07:16;;;;;;;33.50;16.97;;;6.00;99.90;;;;;;6184384;23;20005;-67
2024/02/02 09:09:42;;;;;;;35.90;16.57;;;6.10;99.90;;;;;;6158017;23;20486;-67
2024/02/02 09:12:07;;;;;;;36.80;18.93;;;6.20;99.90;;;;;;6184569;23;20033;-67
2024/02/02 09:14:33;;;;;;;42.43;18.93;;;6.30;99.90;;;;;;6184626;23;20081;-68
2024/02/02 09:16:59;;;;;;;32.53;18.17;;;6.30;99.90;;;;;;6184785;23;20001;-67
2024/02/02 09:19:34;;;;;;;35.27;18.30;;;6.40;99.90;;;;;;6185071;23;20009;-67
2024/02/02 09:22:09;;;;;;;44.27;20.57;;;6.50;99.90;;;;;;6184998;23;20004;-67
2024/02/02 09:24:38;;;;;;;44.60;20.97;;;6.50;99.90;;;;;;6184318;23;20013;-67
2024/02/02 09:27:06;;;;;;;36.33;20.33;;;6.60;99.90;;;;;;6185925;23;20339;-67
2024/02/02 09:29:32;;;;;;;45.27;20.30;;;6.70;99.90;;;;;;6186942;23;20005;-67
2024/02/02 09:31:57;;;;;;;44.53;21.83;;;6.80;99.90;;;;;;6187181;23;20039;-68
2024/02/02 09:34:24;;;;;;;48.23;22.33;;;6.80;99.90;;;;;;6186824;23;20001;-67
2024/02/02 09:36:54;;;;;;;53.33;20.53;;;6.90;99.90;;;;;;6186784;23;20312;-67
2024/02/02 09:39:54;;;;;;;38.20;18.97;;;7.00;99.90;;;;;;6186719;23;20001;-67
2024/02/02 09:42:41;;;;;;;34.97;17.87;;;7.10;99.90;;;;;;6186909;23;20001;-67
2024/02/02 09:45:39;;;;;;;30.60;17.13;;;7.20;99.90;;;;;;6186847;23;20005;-68
2024/02/02 09:48:09;;;;;;;28.20;16.07;;;7.20;99.90;;;;;;6187007;23;20427;-67
2024/02/02 09:50:59;;;;;;;27.93;14.50;;;7.30;99.90;;;;;;6187048;23;20055;-67
2024/02/02 09:53:34;;;;;;;25.40;12.73;;;7.50;99.90;;;;;;6187162;23;20005;-68
2024/02/02 09:56:05;;;;;;;26.93;12.03;;;7.60;99.90;;;;;;6186415;23;20013;-67
2024/02/02 09:58:55;;;;;;;22.30;12.07;;;7.60;99.90;;;;;;6185714;23;20063;-68
2024/02/02 10:01:47;;;;;;;26.90;12.43;;;7.70;99.90;;;;;;6181659;23;20005;-67
2024/02/02 10:04:34;;;;;;;25.13;12.60;;;7.80;99.90;;;;;;6182615;23;20063;-67
2024/02/02 10:07:14;;;;;;;36.20;11.83;;;7.90;99.90;;;;;;6186749;23;20055;-67
2024/02/02 10:09:42;;;;;;;29.60;14.07;;;8.00;99.90;;;;;;6160633;23;20001;-68
2024/02/02 10:12:13;;;;;;;29.77;12.47;;;8.10;99.90;;;;;;6160363;23;20020;-67
2024/02/02 10:14:58;;;;;;;15.70;10.07;;;8.20;99.50;;;;;;6186736;23;20028;-67
2024/02/02 10:18:02;;;;;;;17.83;9.40;;;8.20;99.40;;;;;;6186515;23;20007;-67
2024/02/02 10:20:39;;;;;;;14.80;8.40;;;8.40;99.00;;;;;;6183295;23;20040;-67
2024/02/02 10:23:46;;;;;;;13.50;7.27;;;8.60;99.40;;;;;;6184187;23;20013;-69
2024/02/02 10:26:35;;;;;;;14.90;6.87;;;8.70;97.80;;;;;;6095488;23;20018;-68
2024/02/02 10:29:12;;;;;;;10.10;5.83;;;9.00;99.90;;;;;;6163217;23;20308;-69
2024/02/02 10:32:17;;;;;;;13.00;6.30;;;9.20;99.10;;;;;;6160121;23;20009;-68
2024/02/02 10:35:07;;;;;;;10.30;6.17;;;9.30;98.60;;;;;;6186793;23;20009;-68
2024/02/02 10:37:35;;;;;;;12.50;6.33;;;9.50;97.40;;;;;;6186723;23;20447;-68
2024/02/02 10:40:06;;;;;;;10.63;5.47;;;9.60;97.40;;;;;;6186462;23;20001;-67
2024/02/02 10:42:44;;;;;;;14.03;5.63;;;9.70;97.40;;;;;;6185205;23;20012;-67
2024/02/02 10:45:18;;;;;;;10.63;5.43;;;9.80;96.50;;;;;;6182265;23;20009;-68
2024/02/02 10:47:53;;;;;;;8.33;5.13;;;9.90;95.60;;;;;;6183171;23;20465;-67
2024/02/02 10:50:36;;;;;;;12.43;5.30;;;10.00;94.60;;;;;;6184988;23;20013;-67
2024/02/02 10:53:11;;;;;;;11.83;4.90;;;;;;;;;;6186555;23;20001;-67
2024/02/02 10:55:52;;;;;;;8.83;4.90;;;10.30;94.70;;;;;;6185719;23;20453;-68
2024/02/02 10:58:39;;;;;;;11.63;5.80;;;10.30;93.60;;;;;;6185807;23;20088;-68
2024/02/02 11:01:18;;;;;;;11.43;5.30;;;10.40;93.20;;;;;;6186193;23;20053;-67
2024/02/02 11:03:51;;;;;;;7.40;4.07;;;10.50;93.10;;;;;;6159732;23;20423;-68
2024/02/02 11:06:51;;;;;;;6.10;3.97;;;10.60;92.00;;;;;;6185497;23;20013;-68
2024/02/02 11:09:17;;;;;;;7.73;4.27;;;10.70;92.20;;;;;;6185774;23;20486;-68
2024/02/02 11:11:47;;;;;;;7.93;4.57;;;;;;;;;;6185891;23;20001;-68
2024/02/02 11:14:48;;;;;;;8.33;4.20;;;;;;;;;;6185391;23;20005;-68
2024/02/02 11:17:33;;;;;;;6.53;4.03;;;10.80;90.90;;;;;;6123710;23;20447;-69
2024/02/02 11:20:05;;;;;;;6.13;4.13;;;11.00;89.20;;;;;;6179687;23;20435;-67
2024/02/02 11:22:40;;;;;;;7.50;4.10;;;11.10;87.90;;;;;;6156397;23;20027;-68
2024/02/02 11:25:29;;;;;;;5.57;4.00;;;11.20;87.10;;;;;;6183563;23;20021;-67
2024/02/02 11:28:09;;;;;;;5.90;3.57;;;11.30;87.70;;;;;;6185961;23;19997;-68
2024/02/02 11:31:01;;;;;;;9.15;3.95;;;11.30;86.00;;;;;;6185666;23;20370;-68
2024/02/02 11:33:44;;;;;;;7.13;3.90;;;11.50;84.50;;;;;;6185809;23;20495;-68
2024/02/02 11:36:34;;;;;;;6.60;4.10;;;;;;;;;;6185773;23;20004;-68
2024/02/02 11:39:09;;;;;;;7.13;3.47;;;;;;;;;;6176824;23;20005;-68
2024/02/02 11:41:37;;;;;;;8.75;3.75;;;;;;;;;;6185351;23;20051;-67
2024/02/02 11:44:03;;;;;;;8.00;4.07;;;;;;;;;;6185846;23;20404;-68
2024/02/02 11:46:30;;;;;;;10.40;3.60;;;;;;;;;;6185148;23;20012;-68
2024/02/02 11:49:07;;;;;;;9.05;4.13;;;;;;;;;;6183070;23;20001;-67
2024/02/02 11:51:36;;;;;;;6.20;3.67;;;;;;;;;;6183358;23;20005;-68
2024/02/02 11:54:03;;;;;;;7.20;3.85;;;;;;;;;;6183356;23;20012;-68
2024/02/02 11:56:44;;;;;;;7.68;4.15;;;;;;;;;;6183898;23;20007;-68
2024/02/02 11:59:18;;;;;;;9.93;4.32;;;;;;;;;;6185241;23;20005;-68
2024/02/02 12:02:03;;;;;;;7.68;4.30;;;;;;;;;;6159180;23;20076;-68
2024/02/02 12:04:35;;;;;;;11.02;5.40;;;;;;;;;;6185199;23;20432;-67
2024/02/02 12:07:16;;;;;;;7.13;4.95;;;;;;;;;;6185742;23;20044;-69
2024/02/02 12:10:05;;;;;;;9.02;5.03;;;;;;;;;;6185613;23;20005;-67
2024/02/02 12:12:46;;;;;;;8.65;4.50;;;;;;;;;;6177362;23;20378;-67
2024/02/02 12:15:14;;;;;;;9.73;5.00;;;;;;;;;;6185552;23;20111;-67
2024/02/02 12:17:40;;;;;;;7.93;5.15;;;;;;;;;;6185290;23;20036;-68
2024/02/02 12:20:07;;;;;;;9.48;5.63;;;;;;;;;;6185042;23;20363;-67
2024/02/02 12:22:36;;;;;;;7.43;4.70;;;;;;;;;;6184995;23;20027;-67
2024/02/02 12:25:09;;;;;;;6.28;4.50;;;;;;;;;;6184869;23;20017;-67
2024/02/02 12:27:35;;;;;;;10.93;4.53;;;;;;;;;;6185269;23;20196;-67
2024/02/02 12:30:01;;;;;;;8.20;4.50;;;;;;;;;;6184557;23;20063;-68
2024/02/02 12:32:28;;;;;;;7.70;4.32;;;;;;;;;;6184732;23;20005;-67
2024/02/02 12:34:54;;;;;;;7.07;3.95;;;;;;;;;;6185055;23;20379;-67
2024/02/02 12:37:20;;;;;;;9.95;3.50;;;;;;;;;;6184989;23;20068;-68
2024/02/02 12:39:49;;;;;;;6.35;2.53;;;;;;;;;;6184757;23;20012;-67
2024/02/02 12:42:16;;;;;;;3.67;2.30;;;;;;;;;;6185311;23;19997;-68
2024/02/02 12:44:42;;;;;;;5.95;2.40;;;;;;;;;;6184749;23;20009;-65
2024/02/02 12:47:08;;;;;;;3.50;1.80;;;;;;;;;;6184935;23;20009;-67
2024/02/02 12:49:36;;;;;;;4.82;2.55;;;;;;;;;;6184877;23;20438;-67
2024/02/02 12:52:03;;;;;;;4.03;2.33;;;;;;;;;;6185226;23;20001;-67
2024/02/02 12:54:29;;;;;;;6.43;3.20;;;;;;;;;;6184606;23;20008;-67
2024/02/02 12:56:55;;;;;;;8.75;2.70;;;;;;;;;;6184759;23;20434;-67
2024/02/02 12:59:23;;;;;;;6.05;2.67;;;;;;;;;;6184726;23;20001;-67
2024/02/02 13:01:50;;;;;;;6.65;3.67;;;;;;;;;;6184238;23;20011;-67